sensor_id;sensor_type;location;lat;lon;timestamp;P1;durP1;ratioP1;P2;durP2;ratioP2
26407;SDS011;14583;43.604;1.364;2022-07-22T00:01:50;5.00;;;4.07;;
26407;SDS011;14583;43.604;1.364;2022-07-22T00:04:15;6.50;;;4.28;;
26407;SDS011;14583;43.604;1.364;2022-07-22T00:06:41;4.80;;;4.00;;
26407;SDS011;14583;43.604;1.364;2022-07-22T00:09:08;11.00;;;3.92;;
26407;SDS011;14583;43.604;1.364;2022-07-22T00:11:34;8.60;;;3.90;;
26407;SDS011;14583;43.604;1.364;2022-07-22T00:14:00;5.22;;;4.30;;
26407;SDS011;14583;43.604;1.364;2022-07-22T00:16:26;8.77;;;4.43;;
26407;SDS011;14583;43.604;1.364;2022-07-22T00:18:52;5.97;;;4.22;;
26407;SDS011;14583;43.604;1.364;2022-07-22T00:21:17;10.07;;;4.88;;
26407;SDS011;14583;43.604;1.364;2022-07-22T00:23:43;11.93;;;4.20;;
26407;SDS011;14583;43.604;1.364;2022-07-22T00:26:09;7.28;;;4.60;;
26407;SDS011;14583;43.604;1.364;2022-07-22T00:28:35;6.43;;;4.60;;
26407;SDS011;14583;43.604;1.364;2022-07-22T00:31:01;8.38;;;4.25;;
26407;SDS011;14583;43.604;1.364;2022-07-22T00:33:27;6.75;;;4.28;;
26407;SDS011;14583;43.604;1.364;2022-07-22T00:35:53;6.13;;;4.40;;
26407;SDS011;14583;43.604;1.364;2022-07-22T00:38:19;7.47;;;4.30;;
26407;SDS011;14583;43.604;1.364;2022-07-22T00:40:44;9.25;;;4.28;;
26407;SDS011;14583;43.604;1.364;2022-07-22T00:43:10;6.68;;;4.03;;
26407;SDS011;14583;43.604;1.364;2022-07-22T00:45:36;6.35;;;4.80;;
26407;SDS011;14583;43.604;1.364;2022-07-22T00:48:02;8.98;;;4.68;;
26407;SDS011;14583;43.604;1.364;2022-07-22T00:50:28;5.88;;;4.10;;
26407;SDS011;14583;43.604;1.364;2022-07-22T00:52:54;7.55;;;4.65;;
26407;SDS011;14583;43.604;1.364;2022-07-22T00:55:20;7.28;;;4.30;;
26407;SDS011;14583;43.604;1.364;2022-07-22T00:57:46;7.68;;;4.40;;
26407;SDS011;14583;43.604;1.364;2022-07-22T01:00:14;4.60;;;3.97;;
26407;SDS011;14583;43.604;1.364;2022-07-22T01:02:41;10.20;;;4.40;;
26407;SDS011;14583;43.604;1.364;2022-07-22T01:05:07;6.68;;;4.00;;
26407;SDS011;14583;43.604;1.364;2022-07-22T01:07:33;8.52;;;4.28;;
26407;SDS011;14583;43.604;1.364;2022-07-22T01:09:59;6.90;;;4.18;;
26407;SDS011;14583;43.604;1.364;2022-07-22T01:12:24;9.02;;;4.85;;
26407;SDS011;14583;43.604;1.364;2022-07-22T01:14:50;5.88;;;4.20;;
26407;SDS011;14583;43.604;1.364;2022-07-22T01:17:16;11.07;;;4.70;;
26407;SDS011;14583;43.604;1.364;2022-07-22T01:19:42;7.03;;;4.22;;
26407;SDS011;14583;43.604;1.364;2022-07-22T01:22:08;7.32;;;4.40;;
26407;SDS011;14583;43.604;1.364;2022-07-22T01:24:34;9.55;;;4.88;;
26407;SDS011;14583;43.604;1.364;2022-07-22T01:27:00;7.07;;;4.57;;
26407;SDS011;14583;43.604;1.364;2022-07-22T01:29:26;8.48;;;4.57;;
26407;SDS011;14583;43.604;1.364;2022-07-22T01:31:52;9.18;;;4.70;;
26407;SDS011;14583;43.604;1.364;2022-07-22T01:34:17;6.65;;;4.72;;
26407;SDS011;14583;43.604;1.364;2022-07-22T01:36:43;6.53;;;4.80;;
26407;SDS011;14583;43.604;1.364;2022-07-22T01:39:09;6.90;;;4.45;;
26407;SDS011;14583;43.604;1.364;2022-07-22T01:41:35;7.25;;;4.53;;
26407;SDS011;14583;43.604;1.364;2022-07-22T01:44:00;7.68;;;4.70;;
26407;SDS011;14583;43.604;1.364;2022-07-22T01:46:26;6.25;;;4.95;;
26407;SDS011;14583;43.604;1.364;2022-07-22T01:48:52;8.07;;;4.63;;
26407;SDS011;14583;43.604;1.364;2022-07-22T01:51:18;10.60;;;5.03;;
26407;SDS011;14583;43.604;1.364;2022-07-22T01:53:44;10.20;;;4.70;;
26407;SDS011;14583;43.604;1.364;2022-07-22T01:56:10;6.35;;;5.00;;
26407;SDS011;14583;43.604;1.364;2022-07-22T01:58:36;6.13;;;4.75;;
26407;SDS011;14583;43.604;1.364;2022-07-22T02:01:02;8.95;;;4.35;;
26407;SDS011;14583;43.604;1.364;2022-07-22T02:03:27;10.90;;;4.80;;
26407;SDS011;14583;43.604;1.364;2022-07-22T02:05:53;9.80;;;4.78;;
26407;SDS011;14583;43.604;1.364;2022-07-22T02:08:19;7.97;;;4.68;;
26407;SDS011;14583;43.604;1.364;2022-07-22T02:10:45;5.82;;;4.93;;
26407;SDS011;14583;43.604;1.364;2022-07-22T02:13:11;7.45;;;5.18;;
26407;SDS011;14583;43.604;1.364;2022-07-22T02:15:37;6.78;;;4.90;;
26407;SDS011;14583;43.604;1.364;2022-07-22T02:18:13;7.13;;;4.97;;
26407;SDS011;14583;43.604;1.364;2022-07-22T02:20:40;7.68;;;4.65;;
26407;SDS011;14583;43.604;1.364;2022-07-22T02:23:06;9.93;;;5.95;;
26407;SDS011;14583;43.604;1.364;2022-07-22T02:25:32;7.25;;;4.80;;
26407;SDS011;14583;43.604;1.364;2022-07-22T02:27:58;7.68;;;4.80;;
26407;SDS011;14583;43.604;1.364;2022-07-22T02:30:24;7.25;;;5.15;;
26407;SDS011;14583;43.604;1.364;2022-07-22T02:32:50;5.72;;;4.95;;
26407;SDS011;14583;43.604;1.364;2022-07-22T02:35:15;7.18;;;4.90;;
26407;SDS011;14583;43.604;1.364;2022-07-22T02:37:41;9.13;;;5.28;;
26407;SDS011;14583;43.604;1.364;2022-07-22T02:40:07;8.80;;;4.85;;
26407;SDS011;14583;43.604;1.364;2022-07-22T02:42:33;11.95;;;5.38;;
26407;SDS011;14583;43.604;1.364;2022-07-22T02:44:59;8.88;;;5.15;;
26407;SDS011;14583;43.604;1.364;2022-07-22T02:47:25;8.63;;;4.47;;
26407;SDS011;14583;43.604;1.364;2022-07-22T02:49:50;6.88;;;4.82;;
26407;SDS011;14583;43.604;1.364;2022-07-22T02:52:16;6.28;;;4.97;;
26407;SDS011;14583;43.604;1.364;2022-07-22T02:54:42;7.32;;;4.68;;
26407;SDS011;14583;43.604;1.364;2022-07-22T02:57:08;7.53;;;5.35;;
26407;SDS011;14583;43.604;1.364;2022-07-22T02:59:34;6.22;;;5.10;;
26407;SDS011;14583;43.604;1.364;2022-07-22T03:02:00;9.27;;;5.65;;
26407;SDS011;14583;43.604;1.364;2022-07-22T03:04:26;7.70;;;4.97;;
26407;SDS011;14583;43.604;1.364;2022-07-22T03:06:51;7.80;;;5.30;;
26407;SDS011;14583;43.604;1.364;2022-07-22T03:09:17;9.25;;;5.50;;
26407;SDS011;14583;43.604;1.364;2022-07-22T03:11:44;6.28;;;4.88;;
26407;SDS011;14583;43.604;1.364;2022-07-22T03:14:10;13.32;;;5.38;;
26407;SDS011;14583;43.604;1.364;2022-07-22T03:16:36;7.80;;;5.03;;
26407;SDS011;14583;43.604;1.364;2022-07-22T03:19:02;10.15;;;5.00;;
26407;SDS011;14583;43.604;1.364;2022-07-22T03:21:28;9.05;;;5.10;;
26407;SDS011;14583;43.604;1.364;2022-07-22T03:23:53;7.13;;;5.10;;
26407;SDS011;14583;43.604;1.364;2022-07-22T03:26:20;14.10;;;4.78;;
26407;SDS011;14583;43.604;1.364;2022-07-22T03:28:46;8.43;;;5.25;;
26407;SDS011;14583;43.604;1.364;2022-07-22T03:31:12;7.10;;;5.53;;
26407;SDS011;14583;43.604;1.364;2022-07-22T03:33:38;6.00;;;5.10;;
26407;SDS011;14583;43.604;1.364;2022-07-22T03:36:03;10.25;;;4.97;;
26407;SDS011;14583;43.604;1.364;2022-07-22T03:38:30;7.20;;;5.35;;
26407;SDS011;14583;43.604;1.364;2022-07-22T03:40:56;9.85;;;4.82;;
26407;SDS011;14583;43.604;1.364;2022-07-22T03:43:22;8.32;;;5.05;;
26407;SDS011;14583;43.604;1.364;2022-07-22T03:45:48;9.85;;;5.18;;
26407;SDS011;14583;43.604;1.364;2022-07-22T03:48:13;8.85;;;5.05;;
26407;SDS011;14583;43.604;1.364;2022-07-22T03:50:39;12.48;;;5.13;;
26407;SDS011;14583;43.604;1.364;2022-07-22T03:53:05;9.55;;;4.97;;
26407;SDS011;14583;43.604;1.364;2022-07-22T03:55:30;10.07;;;4.97;;
26407;SDS011;14583;43.604;1.364;2022-07-22T03:57:56;7.68;;;5.38;;
26407;SDS011;14583;43.604;1.364;2022-07-22T04:00:22;7.35;;;5.03;;
26407;SDS011;14583;43.604;1.364;2022-07-22T04:02:47;10.00;;;5.88;;
26407;SDS011;14583;43.604;1.364;2022-07-22T04:05:13;11.82;;;5.38;;
26407;SDS011;14583;43.604;1.364;2022-07-22T04:07:39;7.47;;;4.93;;
26407;SDS011;14583;43.604;1.364;2022-07-22T04:10:04;7.47;;;4.72;;
26407;SDS011;14583;43.604;1.364;2022-07-22T04:12:34;10.07;;;5.82;;
26407;SDS011;14583;43.604;1.364;2022-07-22T04:15:01;9.40;;;5.15;;
26407;SDS011;14583;43.604;1.364;2022-07-22T04:17:27;8.15;;;4.88;;
26407;SDS011;14583;43.604;1.364;2022-07-22T04:19:53;8.55;;;5.50;;
26407;SDS011;14583;43.604;1.364;2022-07-22T04:22:19;9.18;;;5.72;;
26407;SDS011;14583;43.604;1.364;2022-07-22T04:24:45;9.55;;;5.68;;
26407;SDS011;14583;43.604;1.364;2022-07-22T04:27:11;12.80;;;5.63;;
26407;SDS011;14583;43.604;1.364;2022-07-22T04:29:36;9.05;;;5.43;;
26407;SDS011;14583;43.604;1.364;2022-07-22T04:32:02;9.00;;;5.50;;
26407;SDS011;14583;43.604;1.364;2022-07-22T04:34:28;8.10;;;6.53;;
26407;SDS011;14583;43.604;1.364;2022-07-22T04:36:53;13.30;;;5.65;;
26407;SDS011;14583;43.604;1.364;2022-07-22T04:39:19;12.48;;;5.18;;
26407;SDS011;14583;43.604;1.364;2022-07-22T04:41:44;9.55;;;5.47;;
26407;SDS011;14583;43.604;1.364;2022-07-22T04:44:10;8.77;;;5.20;;
26407;SDS011;14583;43.604;1.364;2022-07-22T04:46:36;9.60;;;5.35;;
26407;SDS011;14583;43.604;1.364;2022-07-22T04:49:01;10.55;;;5.65;;
26407;SDS011;14583;43.604;1.364;2022-07-22T04:51:27;11.18;;;5.20;;
26407;SDS011;14583;43.604;1.364;2022-07-22T04:53:53;13.77;;;5.90;;
26407;SDS011;14583;43.604;1.364;2022-07-22T04:56:19;12.27;;;6.22;;
26407;SDS011;14583;43.604;1.364;2022-07-22T04:58:45;11.25;;;5.53;;
26407;SDS011;14583;43.604;1.364;2022-07-22T05:01:10;11.88;;;5.47;;
26407;SDS011;14583;43.604;1.364;2022-07-22T05:03:39;12.55;;;5.70;;
26407;SDS011;14583;43.604;1.364;2022-07-22T05:06:06;10.43;;;5.25;;
26407;SDS011;14583;43.604;1.364;2022-07-22T05:08:32;11.82;;;5.88;;
26407;SDS011;14583;43.604;1.364;2022-07-22T05:10:57;9.63;;;5.50;;
26407;SDS011;14583;43.604;1.364;2022-07-22T05:13:23;14.73;;;5.78;;
26407;SDS011;14583;43.604;1.364;2022-07-22T05:15:48;14.98;;;6.03;;
26407;SDS011;14583;43.604;1.364;2022-07-22T05:18:14;13.63;;;6.10;;
26407;SDS011;14583;43.604;1.364;2022-07-22T05:20:40;10.88;;;5.80;;
26407;SDS011;14583;43.604;1.364;2022-07-22T05:23:06;20.08;;;6.72;;
26407;SDS011;14583;43.604;1.364;2022-07-22T05:25:31;13.00;;;6.65;;
26407;SDS011;14583;43.604;1.364;2022-07-22T05:27:57;15.10;;;6.20;;
26407;SDS011;14583;43.604;1.364;2022-07-22T05:30:23;12.27;;;5.93;;
26407;SDS011;14583;43.604;1.364;2022-07-22T05:32:49;12.88;;;6.53;;
26407;SDS011;14583;43.604;1.364;2022-07-22T05:35:14;17.60;;;6.45;;
26407;SDS011;14583;43.604;1.364;2022-07-22T05:37:40;10.80;;;6.45;;
26407;SDS011;14583;43.604;1.364;2022-07-22T05:40:06;22.15;;;6.53;;
26407;SDS011;14583;43.604;1.364;2022-07-22T05:42:32;17.45;;;6.72;;
26407;SDS011;14583;43.604;1.364;2022-07-22T05:44:58;15.05;;;6.30;;
26407;SDS011;14583;43.604;1.364;2022-07-22T05:47:23;15.93;;;6.82;;
26407;SDS011;14583;43.604;1.364;2022-07-22T05:49:49;14.93;;;6.63;;
26407;SDS011;14583;43.604;1.364;2022-07-22T05:52:15;11.38;;;6.00;;
26407;SDS011;14583;43.604;1.364;2022-07-22T05:54:40;11.35;;;6.00;;
26407;SDS011;14583;43.604;1.364;2022-07-22T05:57:06;14.75;;;6.55;;
26407;SDS011;14583;43.604;1.364;2022-07-22T05:59:35;21.08;;;7.25;;
26407;SDS011;14583;43.604;1.364;2022-07-22T06:02:01;16.65;;;6.18;;
26407;SDS011;14583;43.604;1.364;2022-07-22T06:04:27;21.23;;;7.20;;
26407;SDS011;14583;43.604;1.364;2022-07-22T06:06:52;16.10;;;6.85;;
26407;SDS011;14583;43.604;1.364;2022-07-22T06:09:18;13.32;;;6.50;;
26407;SDS011;14583;43.604;1.364;2022-07-22T06:11:43;14.15;;;8.02;;
26407;SDS011;14583;43.604;1.364;2022-07-22T06:14:09;15.00;;;6.97;;
26407;SDS011;14583;43.604;1.364;2022-07-22T06:16:35;22.38;;;7.72;;
26407;SDS011;14583;43.604;1.364;2022-07-22T06:19:01;19.90;;;7.10;;
26407;SDS011;14583;43.604;1.364;2022-07-22T06:21:27;14.25;;;6.50;;
26407;SDS011;14583;43.604;1.364;2022-07-22T06:23:53;16.73;;;7.40;;
26407;SDS011;14583;43.604;1.364;2022-07-22T06:26:18;18.33;;;7.90;;
26407;SDS011;14583;43.604;1.364;2022-07-22T06:28:44;17.67;;;7.78;;
26407;SDS011;14583;43.604;1.364;2022-07-22T06:31:10;19.17;;;6.82;;
26407;SDS011;14583;43.604;1.364;2022-07-22T06:33:36;23.77;;;7.78;;
26407;SDS011;14583;43.604;1.364;2022-07-22T06:36:02;20.63;;;6.88;;
26407;SDS011;14583;43.604;1.364;2022-07-22T06:38:28;16.08;;;6.53;;
26407;SDS011;14583;43.604;1.364;2022-07-22T06:40:54;13.82;;;7.05;;
26407;SDS011;14583;43.604;1.364;2022-07-22T06:43:19;20.30;;;7.13;;
26407;SDS011;14583;43.604;1.364;2022-07-22T06:45:45;14.55;;;7.20;;
26407;SDS011;14583;43.604;1.364;2022-07-22T06:48:11;25.60;;;7.53;;
26407;SDS011;14583;43.604;1.364;2022-07-22T06:50:36;17.05;;;7.35;;
26407;SDS011;14583;43.604;1.364;2022-07-22T06:53:02;18.52;;;8.30;;
26407;SDS011;14583;43.604;1.364;2022-07-22T06:55:28;21.55;;;7.13;;
26407;SDS011;14583;43.604;1.364;2022-07-22T06:57:54;16.42;;;6.82;;
26407;SDS011;14583;43.604;1.364;2022-07-22T07:00:19;16.52;;;7.13;;
26407;SDS011;14583;43.604;1.364;2022-07-22T07:02:45;16.77;;;6.65;;
26407;SDS011;14583;43.604;1.364;2022-07-22T07:05:10;17.17;;;7.43;;
26407;SDS011;14583;43.604;1.364;2022-07-22T07:07:36;19.92;;;7.53;;
26407;SDS011;14583;43.604;1.364;2022-07-22T07:10:02;15.43;;;7.45;;
26407;SDS011;14583;43.604;1.364;2022-07-22T07:12:28;13.88;;;6.75;;
26407;SDS011;14583;43.604;1.364;2022-07-22T07:14:54;21.88;;;7.85;;
26407;SDS011;14583;43.604;1.364;2022-07-22T07:17:20;24.70;;;7.88;;
26407;SDS011;14583;43.604;1.364;2022-07-22T07:19:45;19.05;;;7.30;;
26407;SDS011;14583;43.604;1.364;2022-07-22T07:22:11;22.48;;;7.35;;
26407;SDS011;14583;43.604;1.364;2022-07-22T07:24:37;22.08;;;8.23;;
26407;SDS011;14583;43.604;1.364;2022-07-22T07:27:02;20.67;;;7.80;;
26407;SDS011;14583;43.604;1.364;2022-07-22T07:29:28;15.48;;;6.97;;
26407;SDS011;14583;43.604;1.364;2022-07-22T07:31:54;22.08;;;8.52;;
26407;SDS011;14583;43.604;1.364;2022-07-22T07:34:19;19.77;;;7.60;;
26407;SDS011;14583;43.604;1.364;2022-07-22T07:36:45;15.05;;;6.90;;
26407;SDS011;14583;43.604;1.364;2022-07-22T07:39:11;18.67;;;7.65;;
26407;SDS011;14583;43.604;1.364;2022-07-22T07:41:36;20.75;;;7.18;;
26407;SDS011;14583;43.604;1.364;2022-07-22T07:44:02;15.48;;;6.80;;
26407;SDS011;14583;43.604;1.364;2022-07-22T07:46:28;17.35;;;6.80;;
26407;SDS011;14583;43.604;1.364;2022-07-22T07:48:53;18.20;;;6.95;;
26407;SDS011;14583;43.604;1.364;2022-07-22T07:51:19;16.33;;;6.63;;
26407;SDS011;14583;43.604;1.364;2022-07-22T07:53:45;11.82;;;7.15;;
26407;SDS011;14583;43.604;1.364;2022-07-22T07:56:11;20.60;;;6.80;;
26407;SDS011;14583;43.604;1.364;2022-07-22T07:58:36;16.35;;;7.00;;
26407;SDS011;14583;43.604;1.364;2022-07-22T08:01:02;14.18;;;6.47;;
26407;SDS011;14583;43.604;1.364;2022-07-22T08:03:28;17.42;;;7.57;;
26407;SDS011;14583;43.604;1.364;2022-07-22T08:05:54;27.90;;;7.72;;
26407;SDS011;14583;43.604;1.364;2022-07-22T08:08:19;14.98;;;6.95;;
26407;SDS011;14583;43.604;1.364;2022-07-22T08:10:45;19.92;;;7.30;;
26407;SDS011;14583;43.604;1.364;2022-07-22T08:13:11;20.60;;;7.68;;
26407;SDS011;14583;43.604;1.364;2022-07-22T08:15:37;13.57;;;6.90;;
26407;SDS011;14583;43.604;1.364;2022-07-22T08:18:02;15.43;;;7.20;;
26407;SDS011;14583;43.604;1.364;2022-07-22T08:20:28;16.25;;;7.32;;
26407;SDS011;14583;43.604;1.364;2022-07-22T08:22:54;16.20;;;6.57;;
26407;SDS011;14583;43.604;1.364;2022-07-22T08:25:20;15.15;;;6.95;;
26407;SDS011;14583;43.604;1.364;2022-07-22T08:27:46;14.73;;;6.95;;
26407;SDS011;14583;43.604;1.364;2022-07-22T08:30:13;20.73;;;7.18;;
26407;SDS011;14583;43.604;1.364;2022-07-22T08:32:39;18.58;;;6.93;;
26407;SDS011;14583;43.604;1.364;2022-07-22T08:35:05;22.00;;;7.60;;
26407;SDS011;14583;43.604;1.364;2022-07-22T08:37:32;15.30;;;6.60;;
26407;SDS011;14583;43.604;1.364;2022-07-22T08:39:58;17.60;;;7.28;;
26407;SDS011;14583;43.604;1.364;2022-07-22T08:42:23;18.27;;;7.00;;
26407;SDS011;14583;43.604;1.364;2022-07-22T08:44:49;13.85;;;7.00;;
26407;SDS011;14583;43.604;1.364;2022-07-22T08:47:19;12.07;;;6.18;;
26407;SDS011;14583;43.604;1.364;2022-07-22T08:49:46;14.27;;;6.97;;
26407;SDS011;14583;43.604;1.364;2022-07-22T08:52:11;13.65;;;6.72;;
26407;SDS011;14583;43.604;1.364;2022-07-22T08:54:37;14.73;;;6.65;;
26407;SDS011;14583;43.604;1.364;2022-07-22T08:57:03;14.65;;;6.55;;
26407;SDS011;14583;43.604;1.364;2022-07-22T08:59:28;20.65;;;6.50;;
26407;SDS011;14583;43.604;1.364;2022-07-22T09:04:29;13.98;;;7.68;;
26407;SDS011;14583;43.604;1.364;2022-07-22T09:06:56;15.35;;;7.20;;
26407;SDS011;14583;43.604;1.364;2022-07-22T09:09:29;10.52;;;6.32;;
26407;SDS011;14583;43.604;1.364;2022-07-22T09:12:07;9.93;;;5.75;;
26407;SDS011;14583;43.604;1.364;2022-07-22T09:14:52;14.45;;;6.15;;
26407;SDS011;14583;43.604;1.364;2022-07-22T09:17:37;18.90;;;6.97;;
26407;SDS011;14583;43.604;1.364;2022-07-22T09:20:25;15.65;;;6.50;;
26407;SDS011;14583;43.604;1.364;2022-07-22T09:22:51;9.63;;;6.60;;
26407;SDS011;14583;43.604;1.364;2022-07-22T09:30:32;12.75;;;6.47;;
26407;SDS011;14583;43.604;1.364;2022-07-22T09:33:05;10.90;;;6.13;;
26407;SDS011;14583;43.604;1.364;2022-07-22T09:35:32;17.88;;;6.75;;
26407;SDS011;14583;43.604;1.364;2022-07-22T09:38:04;17.02;;;7.15;;
26407;SDS011;14583;43.604;1.364;2022-07-22T09:40:35;13.63;;;6.25;;
26407;SDS011;14583;43.604;1.364;2022-07-22T09:43:04;15.30;;;6.93;;
26407;SDS011;14583;43.604;1.364;2022-07-22T09:45:47;12.75;;;6.15;;
26407;SDS011;14583;43.604;1.364;2022-07-22T09:48:16;14.32;;;6.50;;
26407;SDS011;14583;43.604;1.364;2022-07-22T09:50:43;18.55;;;6.45;;
26407;SDS011;14583;43.604;1.364;2022-07-22T09:53:09;15.95;;;6.78;;
26407;SDS011;14583;43.604;1.364;2022-07-22T09:55:35;13.77;;;6.50;;
26407;SDS011;14583;43.604;1.364;2022-07-22T09:58:04;10.50;;;6.18;;
26407;SDS011;14583;43.604;1.364;2022-07-22T10:00:33;15.35;;;7.00;;
26407;SDS011;14583;43.604;1.364;2022-07-22T10:03:00;13.73;;;6.10;;
26407;SDS011;14583;43.604;1.364;2022-07-22T10:05:29;16.00;;;6.60;;
26407;SDS011;14583;43.604;1.364;2022-07-22T10:07:56;15.45;;;6.25;;
26407;SDS011;14583;43.604;1.364;2022-07-22T10:10:25;15.63;;;6.35;;
26407;SDS011;14583;43.604;1.364;2022-07-22T10:12:52;16.90;;;12.27;;
26407;SDS011;14583;43.604;1.364;2022-07-22T10:15:20;13.80;;;6.55;;
26407;SDS011;14583;43.604;1.364;2022-07-22T10:17:50;13.00;;;6.13;;
26407;SDS011;14583;43.604;1.364;2022-07-22T10:20:18;11.07;;;5.82;;
26407;SDS011;14583;43.604;1.364;2022-07-22T10:25:18;11.63;;;5.80;;
26407;SDS011;14583;43.604;1.364;2022-07-22T10:27:46;15.90;;;6.00;;
26407;SDS011;14583;43.604;1.364;2022-07-22T10:30:18;11.73;;;6.35;;
26407;SDS011;14583;43.604;1.364;2022-07-22T10:33:00;9.15;;;5.75;;
26407;SDS011;14583;43.604;1.364;2022-07-22T10:35:28;16.50;;;6.90;;
26407;SDS011;14583;43.604;1.364;2022-07-22T10:37:55;12.73;;;6.53;;
26407;SDS011;14583;43.604;1.364;2022-07-22T10:40:23;9.98;;;6.13;;
26407;SDS011;14583;43.604;1.364;2022-07-22T10:45:33;19.02;;;7.10;;
26407;SDS011;14583;43.604;1.364;2022-07-22T10:48:00;16.40;;;6.22;;
26407;SDS011;14583;43.604;1.364;2022-07-22T10:53:11;12.70;;;6.38;;
26407;SDS011;14583;43.604;1.364;2022-07-22T10:58:43;15.52;;;7.25;;
26407;SDS011;14583;43.604;1.364;2022-07-22T11:01:14;15.80;;;6.78;;
26407;SDS011;14583;43.604;1.364;2022-07-22T11:03:41;9.55;;;6.20;;
26407;SDS011;14583;43.604;1.364;2022-07-22T11:06:16;13.32;;;6.35;;
26407;SDS011;14583;43.604;1.364;2022-07-22T11:08:44;17.13;;;6.68;;
26407;SDS011;14583;43.604;1.364;2022-07-22T11:11:12;14.85;;;7.18;;
26407;SDS011;14583;43.604;1.364;2022-07-22T11:13:39;11.35;;;6.30;;
26407;SDS011;14583;43.604;1.364;2022-07-22T11:18:44;18.30;;;6.43;;
26407;SDS011;14583;43.604;1.364;2022-07-22T11:21:18;10.75;;;6.38;;
26407;SDS011;14583;43.604;1.364;2022-07-22T11:23:44;19.17;;;6.32;;
26407;SDS011;14583;43.604;1.364;2022-07-22T11:26:13;13.55;;;6.45;;
26407;SDS011;14583;43.604;1.364;2022-07-22T11:28:41;16.00;;;6.20;;
26407;SDS011;14583;43.604;1.364;2022-07-22T11:31:08;12.45;;;5.53;;
26407;SDS011;14583;43.604;1.364;2022-07-22T11:33:36;14.07;;;6.90;;
26407;SDS011;14583;43.604;1.364;2022-07-22T11:36:04;12.85;;;5.00;;
26407;SDS011;14583;43.604;1.364;2022-07-22T11:38:47;12.10;;;6.22;;
26407;SDS011;14583;43.604;1.364;2022-07-22T11:41:18;14.98;;;6.05;;
26407;SDS011;14583;43.604;1.364;2022-07-22T11:43:45;17.45;;;5.28;;
26407;SDS011;14583;43.604;1.364;2022-07-22T11:46:13;15.45;;;5.38;;
26407;SDS011;14583;43.604;1.364;2022-07-22T11:48:40;9.15;;;5.20;;
26407;SDS011;14583;43.604;1.364;2022-07-22T11:51:07;13.00;;;5.68;;
26407;SDS011;14583;43.604;1.364;2022-07-22T11:53:37;11.20;;;5.47;;
26407;SDS011;14583;43.604;1.364;2022-07-22T11:56:04;14.05;;;5.28;;
26407;SDS011;14583;43.604;1.364;2022-07-22T11:58:42;11.50;;;5.25;;
26407;SDS011;14583;43.604;1.364;2022-07-22T12:01:10;11.88;;;5.20;;
26407;SDS011;14583;43.604;1.364;2022-07-22T12:03:38;7.43;;;4.97;;
26407;SDS011;14583;43.604;1.364;2022-07-22T12:06:09;14.32;;;5.82;;
26407;SDS011;14583;43.604;1.364;2022-07-22T12:08:39;11.15;;;5.38;;
26407;SDS011;14583;43.604;1.364;2022-07-22T12:11:10;8.57;;;4.97;;
26407;SDS011;14583;43.604;1.364;2022-07-22T12:13:41;16.05;;;4.80;;
26407;SDS011;14583;43.604;1.364;2022-07-22T12:18:50;14.88;;;5.07;;
26407;SDS011;14583;43.604;1.364;2022-07-22T12:21:17;8.07;;;4.60;;
26407;SDS011;14583;43.604;1.364;2022-07-22T12:23:48;11.27;;;4.93;;
26407;SDS011;14583;43.604;1.364;2022-07-22T12:26:41;10.60;;;5.05;;
26407;SDS011;14583;43.604;1.364;2022-07-22T12:29:25;10.60;;;4.90;;
26407;SDS011;14583;43.604;1.364;2022-07-22T12:37:23;14.02;;;5.10;;
26407;SDS011;14583;43.604;1.364;2022-07-22T12:42:25;14.00;;;5.60;;
26407;SDS011;14583;43.604;1.364;2022-07-22T12:50:18;12.48;;;5.30;;
26407;SDS011;14583;43.604;1.364;2022-07-22T12:52:45;12.10;;;5.53;;
26407;SDS011;14583;43.604;1.364;2022-07-22T12:55:15;12.32;;;5.00;;
26407;SDS011;14583;43.604;1.364;2022-07-22T12:57:40;13.48;;;5.18;;
26407;SDS011;14583;43.604;1.364;2022-07-22T13:00:06;10.73;;;4.95;;
26407;SDS011;14583;43.604;1.364;2022-07-22T13:02:32;12.88;;;5.88;;
26407;SDS011;14583;43.604;1.364;2022-07-22T13:04:59;10.98;;;5.95;;
26407;SDS011;14583;43.604;1.364;2022-07-22T13:07:25;13.75;;;5.28;;
26407;SDS011;14583;43.604;1.364;2022-07-22T13:09:50;14.23;;;5.68;;
26407;SDS011;14583;43.604;1.364;2022-07-22T13:12:16;11.40;;;5.50;;
26407;SDS011;14583;43.604;1.364;2022-07-22T13:14:42;11.15;;;5.30;;
26407;SDS011;14583;43.604;1.364;2022-07-22T13:17:07;12.35;;;5.32;;
26407;SDS011;14583;43.604;1.364;2022-07-22T13:19:33;8.02;;;5.38;;
26407;SDS011;14583;43.604;1.364;2022-07-22T13:21:59;14.80;;;5.72;;
26407;SDS011;14583;43.604;1.364;2022-07-22T13:24:24;10.65;;;5.60;;
26407;SDS011;14583;43.604;1.364;2022-07-22T13:26:50;10.13;;;5.55;;
26407;SDS011;14583;43.604;1.364;2022-07-22T13:29:16;11.45;;;5.85;;
26407;SDS011;14583;43.604;1.364;2022-07-22T13:31:42;10.75;;;5.68;;
26407;SDS011;14583;43.604;1.364;2022-07-22T13:34:08;13.10;;;6.18;;
26407;SDS011;14583;43.604;1.364;2022-07-22T13:36:34;15.48;;;6.07;;
26407;SDS011;14583;43.604;1.364;2022-07-22T13:38:59;12.80;;;5.80;;
26407;SDS011;14583;43.604;1.364;2022-07-22T13:41:26;11.00;;;5.47;;
26407;SDS011;14583;43.604;1.364;2022-07-22T13:43:52;12.05;;;5.75;;
26407;SDS011;14583;43.604;1.364;2022-07-22T13:46:18;9.70;;;6.10;;
26407;SDS011;14583;43.604;1.364;2022-07-22T13:48:44;13.55;;;6.30;;
26407;SDS011;14583;43.604;1.364;2022-07-22T13:51:10;9.90;;;6.03;;
26407;SDS011;14583;43.604;1.364;2022-07-22T13:53:36;14.32;;;6.20;;
26407;SDS011;14583;43.604;1.364;2022-07-22T13:56:02;10.70;;;5.97;;
26407;SDS011;14583;43.604;1.364;2022-07-22T13:58:28;12.75;;;6.47;;
26407;SDS011;14583;43.604;1.364;2022-07-22T14:00:54;13.48;;;6.20;;
26407;SDS011;14583;43.604;1.364;2022-07-22T14:03:20;16.42;;;6.88;;
26407;SDS011;14583;43.604;1.364;2022-07-22T14:05:46;10.68;;;6.28;;
26407;SDS011;14583;43.604;1.364;2022-07-22T14:08:12;13.05;;;6.45;;
26407;SDS011;14583;43.604;1.364;2022-07-22T14:10:37;10.55;;;5.45;;
26407;SDS011;14583;43.604;1.364;2022-07-22T14:13:03;15.85;;;6.55;;
26407;SDS011;14583;43.604;1.364;2022-07-22T14:15:31;14.68;;;5.93;;
26407;SDS011;14583;43.604;1.364;2022-07-22T14:17:57;11.45;;;5.95;;
26407;SDS011;14583;43.604;1.364;2022-07-22T14:20:23;11.45;;;5.55;;
26407;SDS011;14583;43.604;1.364;2022-07-22T14:22:48;12.27;;;5.55;;
26407;SDS011;14583;43.604;1.364;2022-07-22T14:25:14;14.38;;;5.60;;
26407;SDS011;14583;43.604;1.364;2022-07-22T14:27:40;13.07;;;5.85;;
26407;SDS011;14583;43.604;1.364;2022-07-22T14:30:06;16.67;;;6.07;;
26407;SDS011;14583;43.604;1.364;2022-07-22T14:32:31;10.00;;;5.30;;
26407;SDS011;14583;43.604;1.364;2022-07-22T14:34:57;10.68;;;5.65;;
26407;SDS011;14583;43.604;1.364;2022-07-22T14:37:23;11.98;;;5.80;;
26407;SDS011;14583;43.604;1.364;2022-07-22T14:39:49;12.60;;;5.55;;
26407;SDS011;14583;43.604;1.364;2022-07-22T14:42:14;11.90;;;5.60;;
26407;SDS011;14583;43.604;1.364;2022-07-22T14:44:40;9.20;;;5.57;;
26407;SDS011;14583;43.604;1.364;2022-07-22T14:47:05;9.07;;;5.30;;
26407;SDS011;14583;43.604;1.364;2022-07-22T14:49:31;11.23;;;5.93;;
26407;SDS011;14583;43.604;1.364;2022-07-22T14:51:57;12.25;;;5.70;;
26407;SDS011;14583;43.604;1.364;2022-07-22T14:54:22;13.75;;;5.75;;
26407;SDS011;14583;43.604;1.364;2022-07-22T14:56:48;6.90;;;4.93;;
26407;SDS011;14583;43.604;1.364;2022-07-22T14:59:14;8.68;;;5.20;;
26407;SDS011;14583;43.604;1.364;2022-07-22T15:01:39;10.85;;;5.60;;
26407;SDS011;14583;43.604;1.364;2022-07-22T15:04:05;12.70;;;6.13;;
26407;SDS011;14583;43.604;1.364;2022-07-22T15:06:31;12.48;;;5.25;;
26407;SDS011;14583;43.604;1.364;2022-07-22T15:08:56;10.35;;;5.80;;
26407;SDS011;14583;43.604;1.364;2022-07-22T15:11:22;9.18;;;4.97;;
26407;SDS011;14583;43.604;1.364;2022-07-22T15:13:48;10.90;;;5.45;;